sensor_id;sensor_type;location;lat;lon;timestamp;pressure;altitude;pressure_sealevel;temperature;humidity
75640;BME280;64233;51.486;6.332;2023-04-20T00:00:43;101866.69;;;5.62;76.32
75640;BME280;64233;51.486;6.332;2023-04-20T00:03:08;101869.16;;;5.63;75.46
75640;BME280;64233;51.486;6.332;2023-04-20T00:05:33;101858.22;;;5.51;76.65
75640;BME280;64233;51.486;6.332;2023-04-20T00:07:59;101853.56;;;5.60;76.06
75640;BME280;64233;51.486;6.332;2023-04-20T00:10:25;101850.06;;;5.38;79.76
75640;BME280;64233;51.486;6.332;2023-04-20T00:12:50;101843.75;;;5.39;78.84
75640;BME280;64233;51.486;6.332;2023-04-20T00:15:16;101846.34;;;5.32;79.18
75640;BME280;64233;51.486;6.332;2023-04-20T00:17:41;101841.47;;;5.36;78.41
75640;BME280;64233;51.486;6.332;2023-04-20T00:20:07;101836.69;;;5.10;81.67
75640;BME280;64233;51.486;6.332;2023-04-20T00:22:34;101834.97;;;5.02;84.42
75640;BME280;64233;51.486;6.332;2023-04-20T00:25:00;101830.19;;;4.97;84.31
75640;BME280;64233;51.486;6.332;2023-04-20T00:27:25;101828.06;;;4.71;87.56
75640;BME280;64233;51.486;6.332;2023-04-20T00:29:50;101825.31;;;4.79;88.03
75640;BME280;64233;51.486;6.332;2023-04-20T00:32:15;101817.84;;;4.90;86.13
75640;BME280;64233;51.486;6.332;2023-04-20T00:34:41;101814.94;;;4.70;88.07
75640;BME280;64233;51.486;6.332;2023-04-20T00:37:06;101809.16;;;4.81;87.60
75640;BME280;64233;51.486;6.332;2023-04-20T00:39:31;101798.22;;;4.91;86.97
75640;BME280;64233;51.486;6.332;2023-04-20T00:42:04;101800.09;;;4.97;87.33
75640;BME280;64233;51.486;6.332;2023-04-20T00:44:30;101791.19;;;5.05;87.46
75640;BME280;64233;51.486;6.332;2023-04-20T00:46:55;101788.19;;;4.93;86.88
75640;BME280;64233;51.486;6.332;2023-04-20T00:49:22;101786.00;;;4.96;84.70
75640;BME280;64233;51.486;6.332;2023-04-20T00:51:48;101785.00;;;4.82;88.90
75640;BME280;64233;51.486;6.332;2023-04-20T00:54:13;101783.81;;;4.85;86.63
75640;BME280;64233;51.486;6.332;2023-04-20T00:56:39;101788.94;;;4.87;85.70
75640;BME280;64233;51.486;6.332;2023-04-20T00:59:05;101780.84;;;4.95;86.00
75640;BME280;64233;51.486;6.332;2023-04-20T01:01:31;101780.28;;;4.99;84.24
75640;BME280;64233;51.486;6.332;2023-04-20T01:03:57;101769.25;;;5.03;83.04
75640;BME280;64233;51.486;6.332;2023-04-20T01:06:22;101765.78;;;5.02;82.83
75640;BME280;64233;51.486;6.332;2023-04-20T01:08:49;101770.31;;;4.87;87.91
75640;BME280;64233;51.486;6.332;2023-04-20T01:11:15;101758.22;;;5.06;84.16
75640;BME280;64233;51.486;6.332;2023-04-20T01:13:41;101766.91;;;4.93;86.82
75640;BME280;64233;51.486;6.332;2023-04-20T01:16:07;101759.59;;;4.80;89.12
75640;BME280;64233;51.486;6.332;2023-04-20T01:19:02;101742.94;;;4.71;91.32
75640;BME280;64233;51.486;6.332;2023-04-20T01:21:27;101740.97;;;4.80;87.32
75640;BME280;64233;51.486;6.332;2023-04-20T01:23:52;101736.72;;;4.64;90.68
75640;BME280;64233;51.486;6.332;2023-04-20T01:26:19;101735.28;;;4.83;87.94
75640;BME280;64233;51.486;6.332;2023-04-20T01:28:45;101719.44;;;4.75;88.67
75640;BME280;64233;51.486;6.332;2023-04-20T01:31:11;101729.63;;;4.50;91.42
75640;BME280;64233;51.486;6.332;2023-04-20T01:33:36;101713.09;;;4.54;91.83
75640;BME280;64233;51.486;6.332;2023-04-20T01:36:03;101713.19;;;4.46;92.33
75640;BME280;64233;51.486;6.332;2023-04-20T01:38:29;101713.69;;;4.35;93.86
75640;BME280;64233;51.486;6.332;2023-04-20T01:40:57;101722.00;;;4.46;91.71
75640;BME280;64233;51.486;6.332;2023-04-20T01:43:23;101709.13;;;4.65;91.03
75640;BME280;64233;51.486;6.332;2023-04-20T01:45:48;101706.81;;;4.62;91.01
75640;BME280;64233;51.486;6.332;2023-04-20T01:48:13;101706.22;;;4.45;95.33
75640;BME280;64233;51.486;6.332;2023-04-20T01:50:39;101694.41;;;4.47;94.51
75640;BME280;64233;51.486;6.332;2023-04-20T01:53:04;101699.78;;;4.54;92.26
75640;BME280;64233;51.486;6.332;2023-04-20T01:55:29;101700.66;;;4.40;94.70
75640;BME280;64233;51.486;6.332;2023-04-20T01:57:54;101695.41;;;4.46;94.29
75640;BME280;64233;51.486;6.332;2023-04-20T02:00:20;101694.22;;;4.49;93.74
75640;BME280;64233;51.486;6.332;2023-04-20T02:02:45;101692.91;;;4.60;92.76
75640;BME280;64233;51.486;6.332;2023-04-20T02:05:10;101692.91;;;4.60;94.37
75640;BME280;64233;51.486;6.332;2023-04-20T02:07:36;101697.13;;;4.54;96.65
75640;BME280;64233;51.486;6.332;2023-04-20T02:10:02;101690.34;;;4.52;97.94
75640;BME280;64233;51.486;6.332;2023-04-20T02:12:27;101688.25;;;4.47;100.00
75640;BME280;64233;51.486;6.332;2023-04-20T02:14:53;101679.44;;;4.46;99.57
75640;BME280;64233;51.486;6.332;2023-04-20T02:17:18;101679.91;;;4.50;100.00
75640;BME280;64233;51.486;6.332;2023-04-20T02:19:43;101670.22;;;4.42;100.00
75640;BME280;64233;51.486;6.332;2023-04-20T02:22:09;101667.81;;;4.47;100.00
75640;BME280;64233;51.486;6.332;2023-04-20T02:24:34;101658.75;;;4.42;100.00
75640;BME280;64233;51.486;6.332;2023-04-20T02:26:59;101670.78;;;4.38;100.00
75640;BME280;64233;51.486;6.332;2023-04-20T02:29:25;101674.31;;;4.45;100.00
75640;BME280;64233;51.486;6.332;2023-04-20T02:31:51;101658.00;;;4.48;100.00
75640;BME280;64233;51.486;6.332;2023-04-20T02:34:16;101652.50;;;4.50;100.00
75640;BME280;64233;51.486;6.332;2023-04-20T02:36:41;101646.72;;;4.46;100.00
75640;BME280;64233;51.486;6.332;2023-04-20T02:39:07;101646.03;;;4.59;100.00
75640;BME280;64233;51.486;6.332;2023-04-20T02:41:32;101643.84;;;4.62;100.00
75640;BME280;64233;51.486;6.332;2023-04-20T02:43:57;101646.13;;;4.65;100.00
75640;BME280;64233;51.486;6.332;2023-04-20T02:46:22;101638.41;;;4.71;100.00
75640;BME280;64233;51.486;6.332;2023-04-20T02:48:48;101628.56;;;4.71;100.00
75640;BME280;64233;51.486;6.332;2023-04-20T02:51:13;101628.56;;;4.71;100.00
75640;BME280;64233;51.486;6.332;2023-04-20T02:53:38;101626.34;;;4.75;100.00
75640;BME280;64233;51.486;6.332;2023-04-20T02:56:04;101618.75;;;4.72;100.00
75640;BME280;64233;51.486;6.332;2023-04-20T02:58:29;101617.28;;;4.69;100.00
75640;BME280;64233;51.486;6.332;2023-04-20T03:00:59;101617.75;;;4.73;100.00
75640;BME280;64233;51.486;6.332;2023-04-20T03:03:30;101623.44;;;4.70;100.00
75640;BME280;64233;51.486;6.332;2023-04-20T03:06:03;101619.81;;;4.77;100.00
75640;BME280;64233;51.486;6.332;2023-04-20T03:08:28;101621.28;;;4.80;100.00
75640;BME280;64233;51.486;6.332;2023-04-20T03:10:53;101614.31;;;4.79;100.00
75640;BME280;64233;51.486;6.332;2023-04-20T03:13:19;101606.13;;;4.80;100.00
75640;BME280;64233;51.486;6.332;2023-04-20T03:15:44;101599.41;;;4.85;100.00
75640;BME280;64233;51.486;6.332;2023-04-20T03:18:10;101599.81;;;4.81;100.00
75640;BME280;64233;51.486;6.332;2023-04-20T03:20:35;101596.31;;;4.81;100.00
75640;BME280;64233;51.486;6.332;2023-04-20T03:23:01;101596.13;;;4.82;100.00
75640;BME280;64233;51.486;6.332;2023-04-20T03:25:26;101613.28;;;4.80;100.00
75640;BME280;64233;51.486;6.332;2023-04-20T03:27:51;101605.78;;;4.83;100.00
75640;BME280;64233;51.486;6.332;2023-04-20T03:30:17;101608.78;;;4.80;100.00
75640;BME280;64233;51.486;6.332;2023-04-20T03:32:42;101603.03;;;4.77;100.00
75640;BME280;64233;51.486;6.332;2023-04-20T03:35:08;101608.97;;;4.79;100.00
75640;BME280;64233;51.486;6.332;2023-04-20T03:37:35;101603.47;;;4.80;100.00
75640;BME280;64233;51.486;6.332;2023-04-20T03:40:01;101601.06;;;4.86;100.00
75640;BME280;64233;51.486;6.332;2023-04-20T03:42:26;101594.28;;;4.83;100.00
75640;BME280;64233;51.486;6.332;2023-04-20T03:44:51;101592.66;;;4.82;100.00
75640;BME280;64233;51.486;6.332;2023-04-20T03:47:23;101587.50;;;4.80;100.00
75640;BME280;64233;51.486;6.332;2023-04-20T03:49:55;101590.34;;;4.79;100.00
75640;BME280;64233;51.486;6.332;2023-04-20T03:52:20;101574.03;;;4.82;100.00
75640;BME280;64233;51.486;6.332;2023-04-20T03:54:45;101575.06;;;4.81;100.00
75640;BME280;64233;51.486;6.332;2023-04-20T03:57:10;101580.56;;;4.79;100.00
75640;BME280;64233;51.486;6.332;2023-04-20T03:59:36;101583.03;;;4.81;100.00
75640;BME280;64233;51.486;6.332;2023-04-20T04:02:01;101570.53;;;4.81;100.00
75640;BME280;64233;51.486;6.332;2023-04-20T04:04:26;101570.72;;;4.80;100.00
75640;BME280;64233;51.486;6.332;2023-04-20T04:06:52;101567.47;;;4.85;100.00
75640;BME280;64233;51.486;6.332;2023-04-20T04:09:17;101567.69;;;4.83;100.00
75640;BME280;64233;51.486;6.332;2023-04-20T04:11:42;101567.53;;;4.91;100.00
75640;BME280;64233;51.486;6.332;2023-04-20T04:14:07;101556.72;;;4.93;100.00
75640;BME280;64233;51.486;6.332;2023-04-20T04:16:33;101562.66;;;4.95;100.00
75640;BME280;64233;51.486;6.332;2023-04-20T04:18:58;101565.56;;;5.00;100.00
75640;BME280;64233;51.486;6.332;2023-04-20T04:21:23;101562.34;;;5.05;100.00
75640;BME280;64233;51.486;6.332;2023-04-20T04:23:49;101558.63;;;5.06;100.00
75640;BME280;64233;51.486;6.332;2023-04-20T04:26:15;101549.63;;;5.07;100.00
75640;BME280;64233;51.486;6.332;2023-04-20T04:28:42;101544.28;;;5.00;100.00
75640;BME280;64233;51.486;6.332;2023-04-20T04:31:10;101548.63;;;5.08;100.00
75640;BME280;64233;51.486;6.332;2023-04-20T04:33:36;101547.66;;;5.15;100.00
75640;BME280;64233;51.486;6.332;2023-04-20T04:36:02;101541.72;;;5.13;100.00
75640;BME280;64233;51.486;6.332;2023-04-20T04:38:28;101533.94;;;5.18;100.00
75640;BME280;64233;51.486;6.332;2023-04-20T04:40:53;101530.72;;;5.23;100.00
75640;BME280;64233;51.486;6.332;2023-04-20T04:43:19;101530.09;;;5.28;100.00
75640;BME280;64233;51.486;6.332;2023-04-20T04:45:44;101532.53;;;5.23;100.00
75640;BME280;64233;51.486;6.332;2023-04-20T04:48:10;101528.84;;;5.24;100.00
75640;BME280;64233;51.486;6.332;2023-04-20T04:50:37;101536.88;;;5.30;100.00
75640;BME280;64233;51.486;6.332;2023-04-20T04:53:02;101530.53;;;5.31;100.00
75640;BME280;64233;51.486;6.332;2023-04-20T04:55:27;101528.91;;;5.30;100.00
75640;BME280;64233;51.486;6.332;2023-04-20T04:57:53;101533.22;;;5.38;100.00
75640;BME280;64233;51.486;6.332;2023-04-20T05:00:18;101520.56;;;5.40;100.00
75640;BME280;64233;51.486;6.332;2023-04-20T05:02:43;101513.16;;;5.42;100.00
75640;BME280;64233;51.486;6.332;2023-04-20T05:05:09;101516.84;;;5.34;100.00
75640;BME280;64233;51.486;6.332;2023-04-20T05:07:34;101537.09;;;5.35;100.00
75640;BME280;64233;51.486;6.332;2023-04-20T05:10:00;101537.75;;;5.38;100.00
75640;BME280;64233;51.486;6.332;2023-04-20T05:12:25;101522.63;;;5.45;100.00
75640;BME280;64233;51.486;6.332;2023-04-20T05:14:51;101526.28;;;5.44;100.00
75640;BME280;64233;51.486;6.332;2023-04-20T05:17:17;101519.72;;;5.40;100.00
75640;BME280;64233;51.486;6.332;2023-04-20T05:19:42;101525.69;;;5.42;100.00
75640;BME280;64233;51.486;6.332;2023-04-20T05:22:07;101525.47;;;5.43;100.00
75640;BME280;64233;51.486;6.332;2023-04-20T05:24:33;101539.41;;;5.45;100.00
75640;BME280;64233;51.486;6.332;2023-04-20T05:26:58;101523.44;;;5.45;100.00
75640;BME280;64233;51.486;6.332;2023-04-20T05:29:24;101528.16;;;5.50;100.00
75640;BME280;64233;51.486;6.332;2023-04-20T05:31:49;101521.81;;;5.51;100.00
75640;BME280;64233;51.486;6.332;2023-04-20T05:34:14;101532.25;;;5.46;100.00
75640;BME280;64233;51.486;6.332;2023-04-20T05:36:40;101531.00;;;5.48;100.00
75640;BME280;64233;51.486;6.332;2023-04-20T05:39:05;101536.97;;;5.50;100.00
75640;BME280;64233;51.486;6.332;2023-04-20T05:41:31;101538.44;;;5.53;100.00
75640;BME280;64233;51.486;6.332;2023-04-20T05:43:56;101537.19;;;5.56;100.00
75640;BME280;64233;51.486;6.332;2023-04-20T05:46:22;101516.72;;;5.56;100.00
75640;BME280;64233;51.486;6.332;2023-04-20T05:48:48;101536.38;;;5.55;100.00
75640;BME280;64233;51.486;6.332;2023-04-20T05:51:13;101533.09;;;5.53;100.00
75640;BME280;64233;51.486;6.332;2023-04-20T05:53:39;101562.19;;;5.55;100.00
75640;BME280;64233;51.486;6.332;2023-04-20T05:56:05;101538.22;;;5.55;100.00
75640;BME280;64233;51.486;6.332;2023-04-20T05:58:31;101543.56;;;5.55;100.00
75640;BME280;64233;51.486;6.332;2023-04-20T06:00:57;101536.56;;;5.54;100.00
75640;BME280;64233;51.486;6.332;2023-04-20T06:03:22;101540.25;;;5.52;100.00
75640;BME280;64233;51.486;6.332;2023-04-20T06:05:48;101543.56;;;5.55;100.00
75640;BME280;64233;51.486;6.332;2023-04-20T06:08:13;101535.38;;;5.56;100.00
75640;BME280;64233;51.486;6.332;2023-04-20T06:10:39;101530.25;;;5.61;100.00
75640;BME280;64233;51.486;6.332;2023-04-20T06:13:04;101528.00;;;5.65;100.00
75640;BME280;64233;51.486;6.332;2023-04-20T06:15:30;101526.38;;;5.64;100.00
75640;BME280;64233;51.486;6.332;2023-04-20T06:17:55;101529.03;;;5.64;100.00
75640;BME280;64233;51.486;6.332;2023-04-20T06:20:20;101527.81;;;5.66;100.00
75640;BME280;64233;51.486;6.332;2023-04-20T06:22:46;101529.66;;;5.73;100.00
75640;BME280;64233;51.486;6.332;2023-04-20T06:25:12;101529.69;;;5.79;100.00
75640;BME280;64233;51.486;6.332;2023-04-20T06:27:38;101525.38;;;5.78;100.00
75640;BME280;64233;51.486;6.332;2023-04-20T06:30:04;101531.34;;;5.80;100.00
75640;BME280;64233;51.486;6.332;2023-04-20T06:32:30;101531.16;;;5.82;100.00
75640;BME280;64233;51.486;6.332;2023-04-20T06:34:55;101523.75;;;5.84;100.00
75640;BME280;64233;51.486;6.332;2023-04-20T06:37:20;101527.03;;;5.79;100.00
75640;BME280;64233;51.486;6.332;2023-04-20T06:39:45;101520.47;;;5.75;100.00
75640;BME280;64233;51.486;6.332;2023-04-20T06:42:11;101525.38;;;5.78;100.00
75640;BME280;64233;51.486;6.332;2023-04-20T06:44:37;101525.38;;;5.78;100.00
75640;BME280;64233;51.486;6.332;2023-04-20T06:47:03;101513.50;;;5.81;100.00
75640;BME280;64233;51.486;6.332;2023-04-20T06:49:28;101533.38;;;5.78;100.00
75640;BME280;64233;51.486;6.332;2023-04-20T06:51:53;101524.34;;;5.73;100.00
75640;BME280;64233;51.486;6.332;2023-04-20T06:54:19;101536.63;;;5.67;100.00
75640;BME280;64233;51.486;6.332;2023-04-20T06:56:44;101520.03;;;5.65;100.00
75640;BME280;64233;51.486;6.332;2023-04-20T06:59:09;101513.88;;;5.64;100.00
75640;BME280;64233;51.486;6.332;2023-04-20T07:01:34;101522.91;;;5.70;100.00
75640;BME280;64233;51.486;6.332;2023-04-20T07:04:00;101521.88;;;5.71;100.00
75640;BME280;64233;51.486;6.332;2023-04-20T07:06:25;101514.94;;;5.70;100.00
75640;BME280;64233;51.486;6.332;2023-04-20T07:08:52;101513.03;;;5.64;100.00
75640;BME280;64233;51.486;6.332;2023-04-20T07:11:18;101517.75;;;5.62;100.00
75640;BME280;64233;51.486;6.332;2023-04-20T07:13:43;101512.22;;;5.63;100.00
75640;BME280;64233;51.486;6.332;2023-04-20T07:16:08;101513.47;;;5.67;100.00
75640;BME280;64233;51.486;6.332;2023-04-20T07:18:34;101517.19;;;5.73;100.00
75640;BME280;64233;51.486;6.332;2023-04-20T07:21:00;101511.25;;;5.78;100.00
75640;BME280;64233;51.486;6.332;2023-04-20T07:23:25;101514.56;;;5.80;100.00
75640;BME280;64233;51.486;6.332;2023-04-20T07:25:51;101514.72;;;5.78;100.00
75640;BME280;64233;51.486;6.332;2023-04-20T07:28:16;101511.69;;;5.81;100.00
75640;BME280;64233;51.486;6.332;2023-04-20T07:30:41;101520.47;;;5.68;100.00
75640;BME280;64233;51.486;6.332;2023-04-20T07:33:06;101519.22;;;5.71;100.00
75640;BME280;64233;51.486;6.332;2023-04-20T07:35:32;101522.69;;;5.65;100.00
75640;BME280;64233;51.486;6.332;2023-04-20T07:37:57;101525.16;;;5.66;100.00
75640;BME280;64233;51.486;6.332;2023-04-20T07:40:23;101516.56;;;5.64;100.00
75640;BME280;64233;51.486;6.332;2023-04-20T07:42:48;101528.22;;;5.63;100.00
75640;BME280;64233;51.486;6.332;2023-04-20T07:45:13;101521.47;;;5.67;100.00
75640;BME280;64233;51.486;6.332;2023-04-20T07:47:39;101518.44;;;5.77;100.00
75640;BME280;64233;51.486;6.332;2023-04-20T07:50:05;101526.19;;;5.72;100.00
75640;BME280;64233;51.486;6.332;2023-04-20T07:52:31;101510.03;;;5.80;100.00
75640;BME280;64233;51.486;6.332;2023-04-20T07:54:56;101519.03;;;5.79;100.00
75640;BME280;64233;51.486;6.332;2023-04-20T07:57:23;101520.91;;;5.85;100.00
75640;BME280;64233;51.486;6.332;2023-04-20T07:59:48;101513.31;;;5.76;100.00
75640;BME280;64233;51.486;6.332;2023-04-20T08:02:14;101518.41;;;5.71;100.00
75640;BME280;64233;51.486;6.332;2023-04-20T08:04:39;101522.47;;;5.66;100.00
75640;BME280;64233;51.486;6.332;2023-04-20T08:07:05;101517.16;;;5.66;100.00
75640;BME280;64233;51.486;6.332;2023-04-20T08:09:30;101511.00;;;5.59;100.00
75640;BME280;64233;51.486;6.332;2023-04-20T08:11:55;101509.13;;;5.60;100.00
75640;BME280;64233;51.486;6.332;2023-04-20T08:14:21;101509.16;;;5.66;100.00
75640;BME280;64233;51.486;6.332;2023-04-20T08:16:46;101497.28;;;5.69;100.00
75640;BME280;64233;51.486;6.332;2023-04-20T08:19:11;101496.91;;;5.79;100.00
75640;BME280;64233;51.486;6.332;2023-04-20T08:21:37;101502.06;;;5.94;100.00
75640;BME280;64233;51.486;6.332;2023-04-20T08:24:03;101511.38;;;6.11;100.00
75640;BME280;64233;51.486;6.332;2023-04-20T08:26:30;101507.69;;;6.26;100.00
75640;BME280;64233;51.486;6.332;2023-04-20T08:28:55;101497.84;;;6.53;100.00
75640;BME280;64233;51.486;6.332;2023-04-20T08:31:21;101493.53;;;6.52;100.00
75640;BME280;64233;51.486;6.332;2023-04-20T08:33:46;101495.16;;;6.60;100.00
75640;BME280;64233;51.486;6.332;2023-04-20T08:36:11;101492.09;;;6.56;100.00
75640;BME280;64233;51.486;6.332;2023-04-20T08:38:36;101473.41;;;6.63;100.00
75640;BME280;64233;51.486;6.332;2023-04-20T08:41:02;101480.19;;;6.59;100.00
75640;BME280;64233;51.486;6.332;2023-04-20T08:43:27;101484.84;;;6.90;100.00
75640;BME280;64233;51.486;6.332;2023-04-20T08:45:57;101486.28;;;6.99;100.00
75640;BME280;64233;51.486;6.332;2023-04-20T08:48:24;101484.63;;;7.05;100.00
75640;BME280;64233;51.486;6.332;2023-04-20T08:50:49;101486.94;;;6.81;100.00
75640;BME280;64233;51.486;6.332;2023-04-20T08:53:15;101481.84;;;6.60;100.00
75640;BME280;64233;51.486;6.332;2023-04-20T08:55:40;101486.13;;;6.74;100.00
75640;BME280;64233;51.486;6.332;2023-04-20T08:58:05;101477.53;;;6.59;100.00
75640;BME280;64233;51.486;6.332;2023-04-20T09:00:31;101481.00;;;6.79;100.00
75640;BME280;64233;51.486;6.332;2023-04-20T09:02:56;101475.19;;;6.96;100.00
75640;BME280;64233;51.486;6.332;2023-04-20T09:05:25;101480.53;;;7.02;100.00
75640;BME280;64233;51.486;6.332;2023-04-20T09:07:58;101479.72;;;6.95;100.00
75640;BME280;64233;51.486;6.332;2023-04-20T09:10:25;101492.25;;;6.75;100.00
75640;BME280;64233;51.486;6.332;2023-04-20T09:12:51;101481.19;;;6.78;100.00
75640;BME280;64233;51.486;6.332;2023-04-20T09:15:29;101478.31;;;6.79;100.00
75640;BME280;64233;51.486;6.332;2023-04-20T09:17:55;101472.56;;;6.82;100.00
75640;BME280;64233;51.486;6.332;2023-04-20T09:20:31;101468.47;;;6.73;100.00
75640;BME280;64233;51.486;6.332;2023-04-20T09:23:09;101475.44;;;6.67;100.00
75640;BME280;64233;51.486;6.332;2023-04-20T09:25:35;101462.53;;;6.64;100.00
75640;BME280;64233;51.486;6.332;2023-04-20T09:28:00;101470.13;;;6.67;100.00
75640;BME280;64233;51.486;6.332;2023-04-20T09:30:37;101478.16;;;6.61;100.00
75640;BME280;64233;51.486;6.332;2023-04-20T09:33:02;101466.47;;;6.55;100.00
75640;BME280;64233;51.486;6.332;2023-04-20T09:35:28;101467.06;;;6.50;100.00
75640;BME280;64233;51.486;6.332;2023-04-20T09:37:53;101476.09;;;6.49;100.00
75640;BME280;64233;51.486;6.332;2023-04-20T09:40:19;101475.47;;;6.54;100.00
75640;BME280;64233;51.486;6.332;2023-04-20T09:42:47;101465.03;;;6.59;100.00
75640;BME280;64233;51.486;6.332;2023-04-20T09:45:13;101470.53;;;6.58;100.00
75640;BME280;64233;51.486;6.332;2023-04-20T09:47:40;101462.94;;;6.61;100.00
75640;BME280;64233;51.486;6.332;2023-04-20T09:50:09;101458.25;;;6.57;100.00
75640;BME280;64233;51.486;6.332;2023-04-20T09:52:36;101465.19;;;6.64;100.00
75640;BME280;64233;51.486;6.332;2023-04-20T09:55:02;101461.72;;;6.57;100.00
75640;BME280;64233;51.486;6.332;2023-04-20T09:57:30;101452.91;;;6.50;100.00
75640;BME280;64233;51.486;6.332;2023-04-20T09:59:56;101455.78;;;6.48;100.00
75640;BME280;64233;51.486;6.332;2023-04-20T10:02:24;101449.22;;;6.51;100.00
75640;BME280;64233;51.486;6.332;2023-04-20T10:04:56;101449.22;;;6.44;100.00
75640;BME280;64233;51.486;6.332;2023-04-20T10:07:28;101447.19;;;6.40;100.00
75640;BME280;64233;51.486;6.332;2023-04-20T10:10:14;101446.75;;;6.43;100.00
75640;BME280;64233;51.486;6.332;2023-04-20T10:12:50;101443.88;;;6.51;100.00
75640;BME280;64233;51.486;6.332;2023-04-20T10:15:16;101442.44;;;6.55;100.00
75640;BME280;64233;51.486;6.332;2023-04-20T10:17:42;101437.75;;;6.44;100.00
75640;BME280;64233;51.486;6.332;2023-04-20T10:20:24;101432.41;;;6.30;100.00
75640;BME280;64233;51.486;6.332;2023-04-20T10:22:51;101440.81;;;6.34;100.00
75640;BME280;64233;51.486;6.332;2023-04-20T10:25:19;101437.13;;;6.28;100.00
75640;BME280;64233;51.486;6.332;2023-04-20T10:27:59;101440.63;;;6.15;100.00
75640;BME280;64233;51.486;6.332;2023-04-20T10:30:27;101428.94;;;6.10;100.00
75640;BME280;64233;51.486;6.332;2023-04-20T10:33:02;101426.28;;;6.10;100.00
75640;BME280;64233;51.486;6.332;2023-04-20T10:35:28;101437.72;;;6.24;100.00
75640;BME280;64233;51.486;6.332;2023-04-20T10:37:54;101442.25;;;6.43;100.00
75640;BME280;64233;51.486;6.332;2023-04-20T10:40:25;101419.03;;;6.64;100.00
75640;BME280;64233;51.486;6.332;2023-04-20T10:42:51;101421.50;;;6.72;100.00
75640;BME280;64233;51.486;6.332;2023-04-20T10:45:16;101420.63;;;6.78;100.00
75640;BME280;64233;51.486;6.332;2023-04-20T10:47:42;101425.19;;;6.58;100.00
75640;BME280;64233;51.486;6.332;2023-04-20T10:50:11;101421.69;;;5.77;100.00
75640;BME280;64233;51.486;6.332;2023-04-20T10:52:38;101433.63;;;6.01;100.00
75640;BME280;64233;51.486;6.332;2023-04-20T10:55:04;101427.84;;;6.64;100.00
75640;BME280;64233;51.486;6.332;2023-04-20T10:57:31;101413.91;;;6.62;100.00
75640;BME280;64233;51.486;6.332;2023-04-20T10:59:58;101427.09;;;6.17;100.00
75640;BME280;64233;51.486;6.332;2023-04-20T11:02:23;101415.41;;;6.38;100.00
75640;BME280;64233;51.486;6.332;2023-04-20T11:04:49;101417.59;;;6.54;100.00
75640;BME280;64233;51.486;6.332;2023-04-20T11:07:21;101404.06;;;6.63;100.00
75640;BME280;64233;51.486;6.332;2023-04-20T11:09:52;101411.31;;;7.01;100.00
75640;BME280;64233;51.486;6.332;2023-04-20T11:12:19;101401.41;;;7.53;100.00
75640;BME280;64233;51.486;6.332;2023-04-20T11:14:52;101419.38;;;7.71;100.00
75640;BME280;64233;51.486;6.332;2023-04-20T11:17:18;101397.63;;;7.93;100.00
75640;BME280;64233;51.486;6.332;2023-04-20T11:19:43;101397.25;;;7.89;100.00
75640;BME280;64233;51.486;6.332;2023-04-20T11:22:19;101393.53;;;7.90;100.00
75640;BME280;64233;51.486;6.332;2023-04-20T11:24:45;101397.41;;;7.95;100.00
75640;BME280;64233;51.486;6.332;2023-04-20T11:27:18;101385.91;;;7.94;100.00
75640;BME280;64233;51.486;6.332;2023-04-20T11:29:54;101391.94;;;8.08;100.00
75640;BME280;64233;51.486;6.332;2023-04-20T11:32:20;101375.66;;;7.66;100.00
75640;BME280;64233;51.486;6.332;2023-04-20T11:34:45;101376.06;;;7.31;100.00
75640;BME280;64233;51.486;6.332;2023-04-20T11:37:11;101365.59;;;7.29;100.00
75640;BME280;64233;51.486;6.332;2023-04-20T11:39:38;101374.03;;;7.58;100.00
75640;BME280;64233;51.486;6.332;2023-04-20T11:42:04;101372.44;;;7.82;100.00
75640;BME280;64233;51.486;6.332;2023-04-20T11:44:29;101372.34;;;8.39;100.00
75640;BME280;64233;51.486;6.332;2023-04-20T11:46:56;101353.91;;;9.05;100.00
75640;BME280;64233;51.486;6.332;2023-04-20T11:49:22;101358.34;;;9.42;100.00
75640;BME280;64233;51.486;6.332;2023-04-20T11:51:48;101351.81;;;9.50;100.00
75640;BME280;64233;51.486;6.332;2023-04-20T11:54:13;101352.28;;;8.86;100.00
75640;BME280;64233;51.486;6.332;2023-04-20T11:56:39;101352.38;;;8.79;100.00
75640;BME280;64233;51.486;6.332;2023-04-20T11:59:06;101353.72;;;8.51;100.00
75640;BME280;64233;51.486;6.332;2023-04-20T12:01:32;101360.91;;;8.32;100.00
75640;BME280;64233;51.486;6.332;2023-04-20T12:03:57;101361.06;;;8.56;100.00
75640;BME280;64233;51.486;6.332;2023-04-20T12:06:25;101350.16;;;8.14;100.00
75640;BME280;64233;51.486;6.332;2023-04-20T12:08:51;101363.50;;;8.14;100.00
75640;BME280;64233;51.486;6.332;2023-04-20T12:11:16;101364.41;;;8.07;100.00
75640;BME280;64233;51.486;6.332;2023-04-20T12:13:42;101350.25;;;8.25;100.00
75640;BME280;64233;51.486;6.332;2023-04-20T12:16:07;101358.06;;;8.27;100.00
75640;BME280;64233;51.486;6.332;2023-04-20T12:18:33;101354.09;;;8.11;100.00
75640;BME280;64233;51.486;6.332;2023-04-20T12:20:58;101362.84;;;8.00;100.00
75640;BME280;64233;51.486;6.332;2023-04-20T12:23:25;101350.28;;;8.00;100.00
75640;BME280;64233;51.486;6.332;2023-04-20T12:25:50;101358.31;;;8.44;100.00
75640;BME280;64233;51.486;6.332;2023-04-20T12:28:15;101362.41;;;8.84;100.00
75640;BME280;64233;51.486;6.332;2023-04-20T12:30:40;101347.75;;;8.86;100.00
75640;BME280;64233;51.486;6.332;2023-04-20T12:33:06;101354.44;;;8.95;100.00
75640;BME280;64233;51.486;6.332;2023-04-20T12:35:31;101354.22;;;8.78;100.00
75640;BME280;64233;51.486;6.332;2023-04-20T12:37:56;101346.59;;;8.45;100.00
75640;BME280;64233;51.486;6.332;2023-04-20T12:40:22;101355.38;;;8.52;100.00
75640;BME280;64233;51.486;6.332;2023-04-20T12:42:47;101348.50;;;8.38;100.00
75640;BME280;64233;51.486;6.332;2023-04-20T12:45:13;101357.19;;;8.52;100.00
75640;BME280;64233;51.486;6.332;2023-04-20T12:47:38;101354.09;;;8.55;100.00